Time;durP1;ratioP1;P1;durP2;ratioP2;P2;SDS_P1;SDS_P2;PMS_P1;PMS_P2;Temp;Humidity;BMP_temperature;BMP_pressure;BME280_temperature;BME280_humidity;BME280_pressure;Samples;Min_cycle;Max_cycle;Signal;HPM_P1;HPM_P2
2022/09/20 18:42:07;;;;;;;;;;;12.40;99.90;;;;;;5119175;27;20148;-69
2022/09/20 18:44:35;;;;;;;;;;;12.20;99.90;;;;;;5111246;28;19928;-69
2022/09/20 18:47:02;;;;;;;;;;;12.10;99.90;;;;;;5113953;27;19931;-69
2022/09/20 18:49:29;;;;;;;;;;;12.00;99.90;;;;;;5114080;28;19967;-69
2022/09/20 18:51:56;;;;;;;;;;;11.90;99.90;;;;;;5094425;28;20025;-69
2022/09/20 18:54:23;;;;;;;;;;;11.80;99.90;;;;;;5102172;28;19928;-68
2022/09/20 18:56:50;;;;;;;;;;;11.80;99.90;;;;;;5106324;28;19932;-68
2022/09/20 18:59:19;;;;;;;;;;;11.80;99.90;;;;;;5110941;27;19951;-68
2022/09/20 19:02:04;;;;;;;;;;;11.70;99.90;;;;;;5103414;28;19931;-69
2022/09/20 19:04:48;;;;;;;;;;;11.60;99.90;;;;;;5113653;28;19928;-69
2022/09/20 19:07:17;;;;;;;;;;;11.50;99.90;;;;;;5117202;28;19951;-69
2022/09/20 19:09:49;;;;;;;;;;;11.40;99.90;;;;;;5109364;28;19931;-68
2022/09/20 19:12:19;;;;;;;;;;;11.30;99.90;;;;;;5110219;28;19932;-68
2022/09/20 19:14:56;;;;;;;;;;;11.20;99.90;;;;;;5112910;27;20279;-68
2022/09/20 19:17:30;;;;;;;;;;;11.20;99.90;;;;;;5111801;28;20109;-68
2022/09/20 19:20:00;;;;;;;;;;;11.20;99.90;;;;;;5111165;28;19936;-69
2022/09/20 19:22:31;;;;;;;;;;;11.10;99.90;;;;;;5112701;28;19928;-69
2022/09/20 19:25:06;;;;;;;;;;;10.90;99.90;;;;;;5102914;28;19938;-68
2022/09/20 19:27:33;;;;;;;;;;;10.90;99.90;;;;;;5114957;27;19927;-68
2022/09/20 19:30:02;;;;;;;;;;;10.80;99.90;;;;;;5118460;28;19927;-69
2022/09/20 19:32:29;;;;;;;;;;;10.90;99.90;;;;;;5110858;28;19935;-69
2022/09/20 19:35:00;;;;;;;;;;;10.90;99.90;;;;;;5110848;27;20310;-69
2022/09/20 19:37:31;;;;;;;;;;;10.80;99.90;;;;;;5117552;27;19963;-69
2022/09/20 19:40:03;;;;;;;;;;;10.80;99.90;;;;;;5115303;27;19924;-69
2022/09/20 19:42:35;;;;;;;;;;;10.70;99.90;;;;;;5136966;27;19931;-69
2022/09/20 19:45:14;;;;;;;;;;;10.70;99.90;;;;;;5131825;27;19928;-68
2022/09/20 19:47:47;;;;;;;;;;;10.60;99.90;;;;;;5127581;27;20459;-69
2022/09/20 19:50:16;;;;;;;;;;;10.70;99.90;;;;;;5126019;27;19923;-68
2022/09/20 19:52:43;;;;;;;;;;;10.70;99.90;;;;;;5120918;27;19924;-68
2022/09/20 19:55:11;;;;;;;;;;;10.60;99.90;;;;;;5120885;27;19931;-68
2022/09/20 19:57:42;;;;;;;;;;;10.60;99.90;;;;;;5121790;27;20340;-69
2022/09/20 20:00:14;;;;;;;;;;;10.60;99.90;;;;;;5120770;27;19930;-69
2022/09/20 20:02:41;;;;;;;;;;;10.50;99.90;;;;;;5119246;27;20387;-68
2022/09/20 20:05:10;;;;;;;;;;;10.50;99.90;;;;;;5123704;27;19924;-69
2022/09/20 20:07:41;;;;;;;;;;;10.50;99.90;;;;;;5119718;27;19931;-68
2022/09/20 20:10:12;;;;;;;;;;;10.50;99.90;;;;;;5123001;27;19938;-68
2022/09/20 20:12:41;;;;;;;;;;;10.40;99.90;;;;;;5122338;27;19927;-68
2022/09/20 20:15:16;;;;;;;;;;;10.30;99.90;;;;;;5123907;27;19931;-68
2022/09/20 20:17:50;;;;;;;;;;;10.30;99.90;;;;;;5117569;27;19923;-69
2022/09/20 20:20:20;;;;;;;;;;;10.20;99.90;;;;;;5120545;27;19955;-69
2022/09/20 20:23:00;;;;;;;;;;;10.20;99.90;;;;;;5116650;27;19971;-69
2022/09/20 20:25:33;;;;;;;;;;;10.10;99.90;;;;;;5117901;27;19988;-69
2022/09/20 20:28:00;;;;;;;;;;;10.10;99.90;;;;;;5106105;22;19947;-69
2022/09/20 20:30:26;;;;;;;;;;;10.00;99.90;;;;;;5079545;28;19966;-69
2022/09/20 20:32:57;;;;;;;;;;;10.00;99.90;;;;;;5068103;28;20016;-69
2022/09/20 20:35:24;;;;;;;;;;;10.00;99.90;;;;;;5065426;28;19932;-70
2022/09/20 20:37:51;;;;;;;;;;;9.90;99.90;;;;;;5088639;28;19978;-70
2022/09/20 20:40:18;;;;;;;;;;;9.80;99.90;;;;;;5068380;28;19979;-69
2022/09/20 20:42:45;;;;;;;;;;;9.80;99.90;;;;;;5085369;28;19968;-70
2022/09/20 20:45:12;;;;;;;;;;;9.70;99.90;;;;;;5077306;28;19932;-70
2022/09/20 20:47:39;;;;;;;;;;;9.80;99.90;;;;;;5086287;28;20023;-70
2022/09/20 20:50:10;;;;;;;;;;;9.70;99.90;;;;;;5078171;28;19924;-70
2022/09/20 20:52:37;;;;;;;;;;;9.70;99.90;;;;;;5076763;28;19963;-70
2022/09/20 20:55:05;;;;;;;;;;;9.60;99.90;;;;;;5071030;28;19957;-69
2022/09/20 20:57:33;;;;;;;;;;;9.60;99.90;;;;;;5070731;28;19929;-70
2022/09/20 20:59:59;;;;;;;;;;;9.50;99.90;;;;;;5070761;28;20380;-69
2022/09/20 21:02:26;;;;;;;;;;;9.40;99.90;;;;;;5070874;28;19981;-69
2022/09/20 21:04:53;;;;;;;;;;;9.40;99.90;;;;;;5083090;28;19932;-70
2022/09/20 21:07:21;;;;;;;;;;;9.30;99.90;;;;;;5070780;28;19935;-67
2022/09/20 21:09:48;;;;;;;;;;;9.30;99.90;;;;;;5067349;28;19928;-69
2022/09/20 21:12:15;;;;;;;;;;;9.30;99.90;;;;;;5070131;28;19924;-70
2022/09/20 21:14:43;;;;;;;;;;;9.30;99.90;;;;;;5070324;28;19928;-70
2022/09/20 21:17:10;;;;;;;;;;;9.30;99.90;;;;;;5070686;28;20288;-71
2022/09/20 21:19:37;;;;;;;;;;;9.30;99.90;;;;;;5078790;28;19925;-70
2022/09/20 21:22:03;;;;;;;;;;;9.30;99.90;;;;;;5070541;28;20448;-71
2022/09/20 21:24:32;;;;;;;;;;;9.30;99.90;;;;;;5070666;28;19939;-70
2022/09/20 21:26:58;;;;;;;;;;;9.30;99.90;;;;;;5070331;28;19924;-71
2022/09/20 21:29:25;;;;;;;;;;;9.30;99.90;;;;;;5069617;28;19924;-70
2022/09/20 21:31:52;;;;;;;;;;;9.20;99.90;;;;;;5070304;28;19935;-71
2022/09/20 21:34:19;;;;;;;;;;;9.10;99.90;;;;;;5069933;28;19935;-70
2022/09/20 21:36:45;;;;;;;;;;;9.10;99.90;;;;;;5068942;28;19924;-71
2022/09/20 21:39:12;;;;;;;;;;;9.00;99.90;;;;;;5085442;28;19940;-70
2022/09/20 21:41:40;;;;;;;;;;;8.90;99.90;;;;;;5070042;28;19925;-70
2022/09/20 21:44:08;;;;;;;;;;;8.90;99.90;;;;;;5061658;28;19925;-71
2022/09/20 21:46:36;;;;;;;;;;;8.90;99.90;;;;;;5082763;28;19968;-70
2022/09/20 21:49:04;;;;;;;;;;;8.80;99.90;;;;;;5065228;28;20310;-69
2022/09/20 21:51:31;;;;;;;;;;;8.80;99.90;;;;;;5069696;28;19974;-72
2022/09/20 21:54:00;;;;;;;;;;;8.80;99.90;;;;;;5077873;28;19930;-70
2022/09/20 21:56:27;;;;;;;;;;;8.80;99.90;;;;;;5080118;28;19924;-70
2022/09/20 21:58:56;;;;;;;;;;;8.80;99.90;;;;;;5078744;28;19932;-71
2022/09/20 22:01:23;;;;;;;;;;;8.80;99.90;;;;;;5062034;28;19959;-70
2022/09/20 22:03:51;;;;;;;;;;;8.80;99.90;;;;;;5065666;28;19931;-70
2022/09/20 22:06:19;;;;;;;;;;;8.70;99.90;;;;;;5065677;28;20006;-70
2022/09/20 22:08:47;;;;;;;;;;;8.70;99.90;;;;;;5069417;28;19924;-70
2022/09/20 22:11:14;;;;;;;;;;;8.60;99.90;;;;;;5069203;28;19928;-69
2022/09/20 22:13:42;;;;;;;;;;;8.60;99.90;;;;;;5078170;28;19947;-70
2022/09/20 22:16:11;;;;;;;;;;;8.60;99.90;;;;;;5069026;28;19928;-70
2022/09/20 22:18:38;;;;;;;;;;;8.50;99.90;;;;;;5069195;28;19931;-71
2022/09/20 22:21:06;;;;;;;;;;;8.50;99.90;;;;;;5069384;28;19924;-70
2022/09/20 22:23:33;;;;;;;;;;;8.50;99.90;;;;;;5075901;28;19928;-70
2022/09/20 22:26:04;;;;;;;;;;;8.60;99.90;;;;;;5069574;28;19925;-70
2022/09/20 22:28:31;;;;;;;;;;;8.50;99.90;;;;;;5069145;28;19972;-70
2022/09/20 22:31:02;;;;;;;;;;;8.40;99.90;;;;;;5069237;28;19928;-69
2022/09/20 22:33:31;;;;;;;;;;;8.40;99.90;;;;;;5077241;28;19924;-69
2022/09/20 22:35:58;;;;;;;;;;;8.40;99.90;;;;;;5069097;28;19925;-69
2022/09/20 22:38:25;;;;;;;;;;;8.40;99.90;;;;;;5077978;28;19929;-69
2022/09/20 22:40:56;;;;;;;;;;;8.40;99.90;;;;;;5068587;28;20019;-69
2022/09/20 22:43:23;;;;;;;;;;;8.40;99.90;;;;;;5069408;28;19974;-71
2022/09/20 22:45:50;;;;;;;;;;;8.30;99.90;;;;;;5071837;28;19925;-69
2022/09/20 22:48:16;;;;;;;;;;;8.30;99.90;;;;;;5060640;28;19924;-70
2022/09/20 22:50:45;;;;;;;;;;;8.20;99.90;;;;;;5068264;28;19940;-70
2022/09/20 22:53:11;;;;;;;;;;;8.30;99.90;;;;;;5069158;28;19924;-70
2022/09/20 22:55:38;;;;;;;;;;;8.10;99.90;;;;;;5075521;28;19928;-71
2022/09/20 22:58:05;;;;;;;;;;;8.10;99.90;;;;;;5077699;28;19924;-70
2022/09/20 23:00:32;;;;;;;;;;;8.10;99.90;;;;;;5069161;28;20061;-69
2022/09/20 23:02:58;;;;;;;;;;;8.10;99.90;;;;;;5068974;28;19982;-71
2022/09/20 23:05:26;;;;;;;;;;;8.10;99.90;;;;;;5069085;28;19932;-69
2022/09/20 23:07:54;;;;;;;;;;;8.00;99.90;;;;;;5065536;28;19928;-70
2022/09/20 23:10:21;;;;;;;;;;;8.00;99.90;;;;;;5068933;28;19924;-70
2022/09/20 23:12:51;;;;;;;;;;;8.10;99.90;;;;;;5068982;28;19924;-69
2022/09/20 23:15:18;;;;;;;;;;;8.00;99.90;;;;;;5069087;28;20399;-71
2022/09/20 23:17:45;;;;;;;;;;;8.10;99.90;;;;;;5068584;28;20409;-70
2022/09/20 23:20:12;;;;;;;;;;;8.10;99.90;;;;;;5069038;28;19958;-69
2022/09/20 23:22:39;;;;;;;;;;;8.00;99.90;;;;;;5069079;28;20399;-69
2022/09/20 23:25:07;;;;;;;;;;;8.00;99.90;;;;;;5078701;28;19925;-69
2022/09/20 23:27:34;;;;;;;;;;;8.00;99.90;;;;;;5070093;28;20390;-70
2022/09/20 23:30:01;;;;;;;;;;;8.00;99.90;;;;;;5072373;28;19924;-70
2022/09/20 23:32:28;;;;;;;;;;;7.90;99.90;;;;;;5073205;28;19978;-70
2022/09/20 23:34:56;;;;;;;;;;;7.90;99.90;;;;;;5072647;28;19925;-70
2022/09/20 23:37:22;;;;;;;;;;;7.90;99.90;;;;;;5067552;28;19924;-70
2022/09/20 23:39:49;;;;;;;;;;;7.90;99.90;;;;;;5072144;28;19931;-70
2022/09/20 23:42:18;;;;;;;;;;;7.90;99.90;;;;;;5072319;28;19924;-70
2022/09/20 23:44:45;;;;;;;;;;;7.90;99.90;;;;;;5073671;28;19933;-69
2022/09/20 23:47:11;;;;;;;;;;;7.80;99.90;;;;;;5077991;28;20391;-69
2022/09/20 23:49:39;;;;;;;;;;;7.90;99.90;;;;;;5071931;28;20383;-70
2022/09/20 23:52:06;;;;;;;;;;;7.90;99.90;;;;;;5075722;28;20015;-70
2022/09/20 23:54:32;;;;;;;;;;;7.90;99.90;;;;;;5072376;28;19925;-71
2022/09/20 23:56:59;;;;;;;;;;;7.90;99.90;;;;;;5083668;28;20350;-71
2022/09/20 23:59:27;;;;;;;;;;;7.90;99.90;;;;;;5071463;28;19924;-70
